Time;durP1;ratioP1;P1;durP2;ratioP2;P2;SDS_P1;SDS_P2;PMS_P1;PMS_P2;Temp;Humidity;BMP_temperature;BMP_pressure;BME280_temperature;BME280_humidity;BME280_pressure;Samples;Min_cycle;Max_cycle;Signal;HPM_P1;HPM_P2
2021/07/01 00:00:38;;;;;;;5.20;4.70;;;14.00;99.90;;;;;;5036883;28;20246;-77
2021/07/01 00:03:04;;;;;;;7.95;5.65;;;14.00;99.90;;;;;;5033632;28;20294;-76
2021/07/01 00:05:31;;;;;;;5.45;4.88;;;14.00;99.90;;;;;;5034529;28;20749;-77
2021/07/01 00:07:58;;;;;;;6.82;5.03;;;14.00;99.90;;;;;;5033135;28;20264;-77
2021/07/01 00:10:27;;;;;;;5.32;4.80;;;14.10;99.90;;;;;;5033768;28;20235;-77
2021/07/01 00:12:55;;;;;;;5.28;4.72;;;14.10;99.90;;;;;;5033872;28;20207;-77
2021/07/01 00:15:24;;;;;;;5.55;5.05;;;14.10;99.90;;;;;;5034178;28;20242;-76
2021/07/01 00:17:53;;;;;;;6.60;4.60;;;14.10;99.90;;;;;;5033907;28;20294;-76
2021/07/01 00:20:22;;;;;;;8.15;4.88;;;14.10;99.90;;;;;;5034437;28;20215;-76
2021/07/01 00:22:50;;;;;;;5.00;4.40;;;14.10;99.90;;;;;;5039965;28;20214;-78
2021/07/01 00:25:17;;;;;;;6.00;4.80;;;14.20;99.90;;;;;;5039657;28;20314;-77
2021/07/01 00:27:45;;;;;;;5.57;4.32;;;14.20;99.90;;;;;;5037692;28;20214;-76
2021/07/01 00:30:14;;;;;;;4.85;4.10;;;14.10;99.90;;;;;;5036095;28;20701;-77
2021/07/01 00:32:42;;;;;;;5.57;4.35;;;14.10;99.90;;;;;;5036415;28;20298;-77
2021/07/01 00:35:11;;;;;;;7.20;5.05;;;14.10;99.90;;;;;;5037166;28;20284;-77
2021/07/01 00:37:39;;;;;;;4.90;4.40;;;14.10;99.90;;;;;;5048370;28;20255;-78
2021/07/01 00:40:09;;;;;;;4.78;4.28;;;14.20;99.90;;;;;;5057735;28;20199;-80
2021/07/01 00:42:36;;;;;;;5.40;4.15;;;14.10;99.90;;;;;;5059862;28;20203;-79
2021/07/01 00:45:03;;;;;;;5.05;4.32;;;14.10;99.90;;;;;;5059814;28;20223;-79
2021/07/01 00:47:31;;;;;;;5.55;4.47;;;14.10;99.90;;;;;;5047372;28;20696;-77
2021/07/01 00:50:00;;;;;;;6.40;4.50;;;14.10;99.90;;;;;;5044210;28;20294;-77
2021/07/01 00:52:28;;;;;;;6.75;4.72;;;14.20;99.90;;;;;;5045550;28;20207;-76
2021/07/01 00:54:55;;;;;;;6.00;3.95;;;14.20;99.90;;;;;;5050740;28;20227;-76
2021/07/01 00:57:23;;;;;;;5.80;4.75;;;14.20;99.90;;;;;;5038416;28;20203;-77
2021/07/01 00:59:50;;;;;;;5.40;4.63;;;14.30;99.90;;;;;;5051451;28;20259;-78
2021/07/01 01:02:17;;;;;;;9.40;5.05;;;14.20;99.90;;;;;;5045600;28;20297;-77
2021/07/01 01:04:44;;;;;;;5.28;4.30;;;14.30;99.90;;;;;;5059990;22;20235;-78
2021/07/01 01:07:11;;;;;;;5.45;4.82;;;14.20;99.90;;;;;;5042154;28;20223;-79
2021/07/01 01:09:39;;;;;;;11.38;5.38;;;14.20;99.90;;;;;;5049584;28;20216;-79
2021/07/01 01:12:07;;;;;;;4.70;4.30;;;14.20;99.90;;;;;;5053988;28;20265;-79
2021/07/01 01:14:35;;;;;;;4.90;4.45;;;14.20;99.90;;;;;;5049708;28;20734;-79
2021/07/01 01:17:01;;;;;;;5.18;4.72;;;14.20;99.90;;;;;;5052690;28;20211;-78
2021/07/01 01:19:28;;;;;;;5.00;4.13;;;14.20;99.90;;;;;;5053771;28;20215;-78
2021/07/01 01:21:57;;;;;;;8.52;4.60;;;14.20;99.90;;;;;;5045391;28;20222;-78
2021/07/01 01:24:23;;;;;;;9.48;4.13;;;14.20;99.90;;;;;;5035138;28;20243;-77
2021/07/01 01:26:51;;;;;;;4.55;4.15;;;14.20;99.90;;;;;;5035957;28;20317;-78
2021/07/01 01:29:21;;;;;;;4.68;4.20;;;14.20;99.90;;;;;;5045892;28;20214;-78
2021/07/01 01:31:48;;;;;;;5.70;4.55;;;14.20;99.90;;;;;;5035334;28;20314;-77
2021/07/01 01:34:16;;;;;;;4.97;4.47;;;14.20;99.90;;;;;;5036034;28;20290;-77
2021/07/01 01:36:43;;;;;;;5.10;4.60;;;14.20;99.90;;;;;;5034651;28;20302;-78
2021/07/01 01:39:11;;;;;;;4.88;4.43;;;14.20;99.90;;;;;;5035341;28;20283;-79
2021/07/01 01:41:39;;;;;;;4.60;4.20;;;14.20;99.90;;;;;;5035330;28;20657;-78
2021/07/01 01:44:07;;;;;;;4.18;3.78;;;14.20;99.90;;;;;;5037181;28;20234;-78
2021/07/01 01:46:35;;;;;;;7.43;4.00;;;14.20;99.90;;;;;;5039033;28;20227;-79
2021/07/01 01:49:03;;;;;;;4.22;3.75;;;14.20;99.90;;;;;;5036661;28;20207;-80
2021/07/01 01:51:31;;;;;;;6.85;4.90;;;14.20;99.90;;;;;;5041096;28;20207;-79
2021/07/01 01:53:58;;;;;;;4.78;4.28;;;14.20;99.90;;;;;;5042348;28;20233;-78
2021/07/01 01:56:36;;;;;;;5.20;4.70;;;14.20;99.90;;;;;;5052671;28;20207;-79
2021/07/01 01:59:03;;;;;;;5.03;4.00;;;14.20;99.90;;;;;;5055434;28;20213;-78
2021/07/01 02:01:30;;;;;;;5.47;4.50;;;14.20;99.90;;;;;;5056303;28;20207;-78
2021/07/01 02:03:57;;;;;;;5.82;4.07;;;14.20;99.90;;;;;;5050358;28;20237;-76
2021/07/01 02:06:24;;;;;;;5.05;4.05;;;14.30;99.90;;;;;;5042458;28;20246;-77
2021/07/01 02:08:51;;;;;;;4.50;4.10;;;14.20;99.90;;;;;;5037120;28;20294;-77
2021/07/01 02:11:18;;;;;;;5.40;4.20;;;14.20;99.90;;;;;;5045185;28;20207;-78
2021/07/01 02:13:47;;;;;;;5.43;4.80;;;14.20;99.90;;;;;;5045178;28;20207;-77
2021/07/01 02:16:14;;;;;;;5.28;4.65;;;14.20;99.90;;;;;;5041341;28;20254;-78
2021/07/01 02:18:41;;;;;;;5.72;4.80;;;14.20;99.90;;;;;;5035278;28;20235;-79
2021/07/01 02:21:08;;;;;;;6.20;5.10;;;14.20;99.90;;;;;;5035042;28;20297;-78
2021/07/01 02:23:35;;;;;;;7.00;4.65;;;14.20;99.90;;;;;;5037276;28;20325;-77
2021/07/01 02:26:02;;;;;;;5.00;4.40;;;14.20;99.90;;;;;;5034004;28;20274;-77
2021/07/01 02:28:29;;;;;;;6.03;4.90;;;14.20;99.90;;;;;;5034017;28;20211;-78
2021/07/01 02:30:57;;;;;;;5.70;5.20;;;14.10;99.90;;;;;;5033720;28;20293;-77
2021/07/01 02:33:24;;;;;;;9.45;5.72;;;14.10;99.90;;;;;;5033338;28;20290;-77
2021/07/01 02:35:51;;;;;;;5.70;5.20;;;14.10;99.90;;;;;;5034233;28;20313;-77
2021/07/01 02:38:18;;;;;;;6.47;5.60;;;14.10;99.90;;;;;;5034339;28;20222;-78
2021/07/01 02:40:45;;;;;;;6.50;5.65;;;14.10;99.90;;;;;;5046550;28;20207;-78
2021/07/01 02:43:12;;;;;;;9.30;5.50;;;14.10;99.90;;;;;;5049657;28;20237;-77
2021/07/01 02:45:39;;;;;;;5.50;4.82;;;14.10;99.90;;;;;;5048922;28;20246;-77
2021/07/01 02:48:08;;;;;;;5.25;4.72;;;14.10;99.90;;;;;;5049420;28;20242;-77
2021/07/01 02:50:35;;;;;;;6.30;4.80;;;14.10;99.90;;;;;;5052643;28;20191;-78
2021/07/01 02:53:02;;;;;;;5.65;5.03;;;14.10;99.90;;;;;;5043599;28;20649;-77
2021/07/01 02:55:28;;;;;;;8.68;4.55;;;14.10;99.90;;;;;;5034203;28;20277;-77
2021/07/01 02:57:56;;;;;;;5.53;5.00;;;14.10;99.90;;;;;;5033991;28;20211;-77
2021/07/01 03:00:23;;;;;;;5.15;4.65;;;14.10;99.90;;;;;;5033828;28;20211;-78
2021/07/01 03:02:50;;;;;;;8.80;5.00;;;14.20;99.90;;;;;;5035247;28;20298;-80
2021/07/01 03:05:18;;;;;;;8.02;5.40;;;14.20;99.90;;;;;;5040799;28;20278;-77
2021/07/01 03:07:45;;;;;;;5.70;5.20;;;14.20;99.90;;;;;;5041563;28;20261;-79
2021/07/01 03:10:12;;;;;;;5.88;5.20;;;14.20;99.90;;;;;;5045572;28;20206;-79
2021/07/01 03:12:39;;;;;;;6.25;5.07;;;14.20;99.90;;;;;;5045418;28;20264;-77
2021/07/01 03:15:08;;;;;;;10.23;7.25;;;14.20;99.90;;;;;;5044665;28;20235;-79
2021/07/01 03:17:38;;;;;;;9.38;5.65;;;14.20;99.90;;;;;;5045290;28;20214;-79
2021/07/01 03:20:07;;;;;;;5.70;5.10;;;14.10;99.90;;;;;;5051935;28;20207;-79
2021/07/01 03:22:35;;;;;;;5.68;5.10;;;14.20;99.90;;;;;;5048325;28;20200;-78
2021/07/01 03:25:02;;;;;;;5.90;5.00;;;14.20;99.90;;;;;;5042391;28;20235;-79
2021/07/01 03:27:29;;;;;;;6.15;5.20;;;14.20;99.90;;;;;;5040625;28;20230;-79
2021/07/01 03:29:56;;;;;;;5.20;4.70;;;14.20;99.90;;;;;;5041168;28;20207;-78
2021/07/01 03:32:23;;;;;;;5.45;4.45;;;14.30;99.90;;;;;;5041073;28;20214;-79
2021/07/01 03:34:50;;;;;;;4.88;4.45;;;14.20;99.90;;;;;;5039639;28;20223;-80
2021/07/01 03:37:17;;;;;;;5.00;4.55;;;14.30;99.90;;;;;;5039709;28;20207;-79
2021/07/01 03:39:46;;;;;;;5.78;5.20;;;14.30;99.90;;;;;;5039857;28;20207;-79
2021/07/01 03:42:13;;;;;;;5.15;4.65;;;14.30;99.90;;;;;;5039725;28;20208;-80
2021/07/01 03:44:40;;;;;;;5.72;4.80;;;14.30;99.90;;;;;;5039860;28;20281;-79
2021/07/01 03:47:08;;;;;;;5.13;4.60;;;14.30;99.90;;;;;;5040878;28;20254;-79
2021/07/01 03:49:35;;;;;;;5.90;5.30;;;14.30;99.90;;;;;;5040014;28;20214;-79
2021/07/01 03:52:02;;;;;;;7.28;5.32;;;14.20;99.90;;;;;;5040371;28;20217;-79
2021/07/01 03:54:29;;;;;;;5.72;5.22;;;14.30;99.90;;;;;;5040339;28;20219;-80
2021/07/01 03:56:59;;;;;;;6.43;4.50;;;14.30;99.90;;;;;;5048954;28;20207;-79
2021/07/01 03:59:26;;;;;;;6.38;5.53;;;14.20;99.90;;;;;;5045287;28;20249;-80
2021/07/01 04:01:53;;;;;;;6.75;5.15;;;14.20;99.90;;;;;;5044154;28;20643;-78
2021/07/01 04:04:20;;;;;;;6.47;5.05;;;14.20;99.90;;;;;;5043660;28;20222;-80
2021/07/01 04:06:47;;;;;;;7.70;5.03;;;14.30;99.90;;;;;;5043966;28;20729;-79
2021/07/01 04:09:14;;;;;;;9.25;5.60;;;14.20;99.90;;;;;;5044938;28;20263;-79
2021/07/01 04:11:41;;;;;;;6.07;5.25;;;14.20;99.90;;;;;;5047345;28;20203;-80
2021/07/01 04:14:09;;;;;;;6.50;5.07;;;14.20;99.90;;;;;;5056100;28;20221;-77
2021/07/01 04:16:36;;;;;;;9.25;5.10;;;14.20;99.90;;;;;;5046023;28;20671;-80
2021/07/01 04:19:03;;;;;;;8.52;5.75;;;14.20;99.90;;;;;;5047419;28;20199;-79
2021/07/01 04:21:30;;;;;;;6.55;5.65;;;14.20;99.90;;;;;;5056087;28;20203;-76
2021/07/01 04:23:58;;;;;;;6.70;5.53;;;14.20;99.90;;;;;;5058506;28;20199;-78
2021/07/01 04:26:25;;;;;;;6.78;5.50;;;14.30;99.90;;;;;;5058451;28;20222;-79
2021/07/01 04:28:52;;;;;;;7.88;5.50;;;14.30;99.90;;;;;;5059617;28;20199;-76
2021/07/01 04:31:21;;;;;;;7.70;6.05;;;14.30;99.90;;;;;;5059019;28;20260;-77
2021/07/01 04:33:49;;;;;;;6.68;5.95;;;14.30;99.90;;;;;;5058651;28;20512;-76
2021/07/01 04:36:16;;;;;;;7.88;5.60;;;14.30;99.90;;;;;;5058218;28;20250;-78
2021/07/01 04:38:43;;;;;;;7.40;5.97;;;14.40;99.90;;;;;;5048181;28;20241;-80
2021/07/01 04:41:10;;;;;;;7.88;6.40;;;14.40;99.90;;;;;;5044561;28;20210;-80
2021/07/01 04:43:37;;;;;;;6.50;5.25;;;14.40;99.90;;;;;;5044206;28;20211;-80
2021/07/01 04:46:04;;;;;;;6.45;5.78;;;14.50;99.90;;;;;;5046930;28;20784;-78
2021/07/01 04:48:32;;;;;;;7.63;5.43;;;14.50;99.90;;;;;;5058249;28;20227;-78
2021/07/01 04:50:59;;;;;;;6.90;6.15;;;14.50;99.90;;;;;;5056912;28;20218;-79
2021/07/01 04:53:26;;;;;;;7.10;5.18;;;14.50;99.90;;;;;;5057755;28;20211;-77
2021/07/01 04:55:53;;;;;;;5.88;5.18;;;14.50;99.90;;;;;;5058380;28;20231;-76
2021/07/01 04:58:20;;;;;;;6.65;5.20;;;14.50;99.90;;;;;;5058228;28;20199;-77
2021/07/01 05:00:48;;;;;;;6.63;5.20;;;14.60;99.90;;;;;;5057418;28;20231;-76
2021/07/01 05:03:15;;;;;;;5.78;5.15;;;14.60;99.90;;;;;;5056857;28;20264;-78
2021/07/01 05:05:44;;;;;;;7.50;4.65;;;14.60;99.90;;;;;;5055186;28;20245;-77
2021/07/01 05:08:11;;;;;;;4.80;4.28;;;14.60;99.90;;;;;;5050948;28;20227;-76
2021/07/01 05:10:38;;;;;;;8.65;4.45;;;14.70;99.90;;;;;;5048095;28;20203;-79
2021/07/01 05:13:05;;;;;;;6.57;4.50;;;14.70;99.90;;;;;;5041994;28;20228;-78
2021/07/01 05:15:32;;;;;;;4.60;4.10;;;14.70;99.90;;;;;;5042016;28;20748;-79
2021/07/01 05:17:59;;;;;;;7.40;4.95;;;14.70;99.90;;;;;;5043982;28;20211;-79
2021/07/01 05:20:26;;;;;;;4.63;4.20;;;14.80;99.90;;;;;;5042926;28;20261;-79
2021/07/01 05:22:55;;;;;;;5.50;5.00;;;14.80;99.90;;;;;;5042035;28;20195;-79
2021/07/01 05:25:22;;;;;;;6.85;4.05;;;14.80;99.90;;;;;;5042417;28;20223;-80
2021/07/01 05:27:49;;;;;;;5.35;3.83;;;14.90;99.90;;;;;;5043164;28;20259;-79
2021/07/01 05:30:16;;;;;;;3.90;3.50;;;15.00;99.90;;;;;;5045446;28;20207;-81
2021/07/01 05:32:43;;;;;;;5.65;4.30;;;15.10;99.90;;;;;;5043026;28;20207;-81
2021/07/01 05:35:10;;;;;;;6.53;4.13;;;15.20;99.90;;;;;;5043585;28;20226;-79
2021/07/01 05:37:37;;;;;;;6.53;3.72;;;15.30;99.90;;;;;;5043570;28;20195;-77
2021/07/01 05:40:08;;;;;;;6.00;4.18;;;15.30;99.80;;;;;;5055672;28;20229;-80
2021/07/01 05:42:35;;;;;;;6.15;4.20;;;15.40;99.30;;;;;;5047803;28;20192;-77
2021/07/01 05:45:02;;;;;;;5.50;4.72;;;15.40;98.10;;;;;;5058242;28;20210;-77
2021/07/01 05:47:30;;;;;;;4.38;3.97;;;15.50;97.60;;;;;;5054280;28;20226;-81
2021/07/01 05:49:57;;;;;;;4.10;3.70;;;15.50;97.20;;;;;;5042105;28;20567;-82
2021/07/01 05:52:27;;;;;;;6.13;4.15;;;15.50;97.20;;;;;;5042654;28;20576;-80
2021/07/01 05:54:55;;;;;;;4.22;3.75;;;15.60;97.20;;;;;;5034978;28;20216;-80
2021/07/01 05:57:24;;;;;;;4.30;3.65;;;15.60;96.90;;;;;;5042467;28;20235;-79
2021/07/01 05:59:51;;;;;;;4.93;3.88;;;15.60;96.50;;;;;;5041972;28;20294;-79
2021/07/01 06:02:19;;;;;;;4.20;3.60;;;15.60;96.00;;;;;;5042324;28;20265;-80
2021/07/01 06:04:45;;;;;;;4.78;4.38;;;15.50;95.60;;;;;;5051864;28;20535;-81
2021/07/01 06:07:17;;;;;;;4.28;3.88;;;15.60;95.20;;;;;;5051764;28;20238;-79
2021/07/01 06:09:48;;;;;;;3.92;3.30;;;15.70;95.10;;;;;;5057218;28;20195;-77
2021/07/01 06:12:16;;;;;;;4.30;3.90;;;15.70;94.80;;;;;;5053602;28;20215;-76
2021/07/01 06:14:45;;;;;;;5.35;3.75;;;15.80;93.70;;;;;;5046750;28;20225;-77
2021/07/01 06:17:16;;;;;;;6.68;4.07;;;15.80;93.60;;;;;;5034611;28;20199;-82
2021/07/01 06:19:43;;;;;;;4.05;3.70;;;15.80;92.80;;;;;;5034552;28;20237;-79
2021/07/01 06:22:10;;;;;;;4.93;3.65;;;15.90;92.80;;;;;;5044760;28;20233;-77
2021/07/01 06:24:37;;;;;;;4.60;4.10;;;15.90;92.70;;;;;;5053240;28;20661;-76
2021/07/01 06:27:05;;;;;;;4.18;3.80;;;16.00;92.50;;;;;;5054378;28;20488;-79
2021/07/01 06:29:32;;;;;;;5.28;4.35;;;16.00;92.10;;;;;;5041092;28;20238;-77
2021/07/01 06:32:02;;;;;;;5.10;3.67;;;16.00;90.60;;;;;;5045820;28;20274;-76
2021/07/01 06:34:29;;;;;;;7.25;4.13;;;16.10;91.10;;;;;;5049332;28;20220;-76
2021/07/01 06:37:01;;;;;;;4.43;3.90;;;16.10;90.50;;;;;;5034798;28;20234;-76
2021/07/01 06:39:29;;;;;;;4.35;3.58;;;16.20;90.70;;;;;;5034800;28;20209;-78
2021/07/01 06:41:59;;;;;;;5.25;4.20;;;16.40;90.00;;;;;;5033627;28;20206;-80
2021/07/01 06:44:27;;;;;;;7.23;4.33;;;16.50;87.70;;;;;;5023887;28;20649;-80
2021/07/01 06:46:55;;;;;;;4.32;3.90;;;16.60;85.60;;;;;;5023839;28;20459;-80
2021/07/01 06:49:25;;;;;;;5.30;3.40;;;16.60;84.80;;;;;;5023510;28;20219;-79
2021/07/01 06:51:54;;;;;;;4.05;3.60;;;16.70;82.40;;;;;;5024571;28;20467;-80
2021/07/01 06:54:22;;;;;;;7.67;4.30;;;16.70;82.40;;;;;;5022696;28;20203;-81
2021/07/01 06:56:49;;;;;;;6.80;4.53;;;16.70;81.60;;;;;;5023507;28;20450;-80
2021/07/01 06:59:16;;;;;;;3.70;3.27;;;16.80;80.10;;;;;;5028597;28;20455;-78
2021/07/01 07:01:43;;;;;;;6.30;4.37;;;17.00;81.10;;;;;;5027725;28;20443;-80
2021/07/01 07:04:12;;;;;;;4.03;3.60;;;17.20;78.90;;;;;;5027735;28;20471;-80
2021/07/01 07:06:42;;;;;;;5.10;3.70;;;17.30;76.70;;;;;;5073034;22;20501;-74
2021/07/01 07:09:10;;;;;;;4.13;3.30;;;17.20;76.20;;;;;;5045180;28;20544;-74
2021/07/01 07:11:36;;;;;;;7.77;4.10;;;17.20;77.30;;;;;;5051713;28;20458;-74
2021/07/01 07:14:04;;;;;;;5.00;4.50;;;17.10;77.60;;;;;;5057054;28;20459;-73
2021/07/01 07:16:35;;;;;;;6.23;4.50;;;17.20;75.70;;;;;;5052399;28;20449;-74
2021/07/01 07:19:03;;;;;;;5.17;4.03;;;17.10;76.40;;;;;;5052132;28;20453;-74
2021/07/01 07:21:35;;;;;;;4.10;3.40;;;17.20;77.90;;;;;;5055803;28;20519;-73
2021/07/01 07:24:05;;;;;;;5.17;3.60;;;17.40;76.30;;;;;;5055451;28;20464;-74
2021/07/01 07:26:33;;;;;;;3.93;3.53;;;17.30;74.20;;;;;;5053306;28;20480;-75
2021/07/01 07:29:02;;;;;;;3.43;3.13;;;17.20;74.10;;;;;;5043073;28;20486;-75
2021/07/01 07:31:31;;;;;;;6.67;3.70;;;17.10;74.10;;;;;;5034256;28;20481;-76
2021/07/01 07:34:01;;;;;;;3.90;3.60;;;17.00;75.30;;;;;;5033086;28;20521;-76
2021/07/01 07:36:28;;;;;;;4.53;3.77;;;17.20;76.70;;;;;;5033944;28;20511;-76
2021/07/01 07:38:56;;;;;;;3.73;3.43;;;17.20;73.60;;;;;;5033426;28;20425;-76
2021/07/01 07:41:26;;;;;;;4.87;3.60;;;17.30;74.30;;;;;;5033952;28;20465;-76
2021/07/01 07:43:55;;;;;;;4.47;4.07;;;17.50;73.10;;;;;;5033142;28;20455;-76
2021/07/01 07:46:26;;;;;;;5.93;3.47;;;17.60;72.10;;;;;;5033591;28;20482;-76
2021/07/01 07:48:53;;;;;;;5.33;3.77;;;17.60;71.60;;;;;;5033593;28;20495;-76
2021/07/01 07:51:24;;;;;;;4.33;3.77;;;17.50;72.20;;;;;;5033442;28;20534;-75
2021/07/01 07:53:55;;;;;;;4.03;3.73;;;17.50;72.20;;;;;;5034308;28;20494;-76
2021/07/01 07:56:27;;;;;;;4.70;4.07;;;17.50;72.10;;;;;;5034519;28;20466;-75
2021/07/01 07:58:56;;;;;;;4.20;3.60;;;17.60;72.50;;;;;;5037682;28;20434;-76
2021/07/01 08:01:24;;;;;;;4.50;3.80;;;17.70;69.60;;;;;;5041450;28;20451;-76
2021/07/01 08:03:54;;;;;;;7.43;4.00;;;17.70;69.80;;;;;;5038826;28;20855;-76
2021/07/01 08:06:24;;;;;;;5.53;3.47;;;17.60;70.10;;;;;;5037882;28;20494;-76
2021/07/01 08:08:53;;;;;;;4.20;3.70;;;17.60;70.10;;;;;;5036420;28;20487;-76
2021/07/01 08:11:23;;;;;;;5.20;3.57;;;17.70;68.70;;;;;;5036387;28;20451;-76
2021/07/01 08:13:55;;;;;;;6.93;3.20;;;17.60;69.20;;;;;;5036146;28;20940;-76
2021/07/01 08:16:23;;;;;;;3.70;3.40;;;17.80;69.20;;;;;;5041780;28;20486;-76
2021/07/01 08:18:51;;;;;;;8.93;3.73;;;18.20;66.10;;;;;;5054674;28;20458;-75
2021/07/01 08:21:19;;;;;;;4.07;3.30;;;18.50;64.00;;;;;;5038395;28;21019;-76
2021/07/01 08:23:46;;;;;;;4.40;3.20;;;18.30;63.90;;;;;;5055544;28;20548;-76
2021/07/01 08:26:14;;;;;;;3.40;3.10;;;18.20;63.80;;;;;;5058212;28;20470;-76
2021/07/01 08:28:42;;;;;;;3.30;3.00;;;18.30;65.30;;;;;;5063730;28;20489;-76
2021/07/01 08:31:13;;;;;;;3.20;2.90;;;18.70;63.60;;;;;;5075672;28;20437;-76
2021/07/01 08:33:42;;;;;;;4.93;3.37;;;19.00;61.90;;;;;;5075179;28;20457;-77
2021/07/01 08:36:13;;;;;;;7.07;3.33;;;19.20;57.90;;;;;;5073242;28;20530;-76
2021/07/01 08:38:40;;;;;;;4.07;3.47;;;18.90;60.00;;;;;;5070950;28;20508;-76
2021/07/01 08:41:16;;;;;;;5.67;3.43;;;18.80;60.70;;;;;;5055614;28;20457;-76
2021/07/01 08:43:51;;;;;;;3.73;3.43;;;18.90;60.90;;;;;;5054938;28;20451;-75
2021/07/01 08:46:24;;;;;;;8.13;3.60;;;18.90;60.90;;;;;;5055458;28;20755;-75
2021/07/01 08:49:04;;;;;;;3.20;2.90;;;19.20;60.60;;;;;;5057431;28;20503;-75
2021/07/01 08:51:35;;;;;;;2.97;2.70;;;18.90;59.10;;;;;;5052981;28;20490;-75
2021/07/01 08:54:21;;;;;;;3.30;3.00;;;18.60;59.10;;;;;;5051005;28;20457;-76
2021/07/01 08:56:48;;;;;;;3.20;2.90;;;18.50;59.70;;;;;;5057097;28;20445;-75
2021/07/01 08:59:19;;;;;;;5.57;2.60;;;18.50;60.00;;;;;;5048593;28;20455;-76
2021/07/01 09:01:54;;;;;;;2.43;2.23;;;18.40;60.20;;;;;;5055009;28;20424;-75
2021/07/01 09:04:23;;;;;;;2.93;2.73;;;18.30;59.50;;;;;;5058396;28;20455;-76
2021/07/01 09:06:59;;;;;;;2.93;2.73;;;18.20;60.20;;;;;;5058801;28;20551;-76
2021/07/01 09:09:34;;;;;;;6.13;3.03;;;18.10;60.30;;;;;;5057754;28;20475;-75
2021/07/01 09:12:04;;;;;;;3.90;3.30;;;17.90;61.80;;;;;;5057732;28;20470;-75
2021/07/01 09:14:32;;;;;;;3.13;2.93;;;17.80;63.40;;;;;;5054728;28;20464;-74
2021/07/01 09:17:03;;;;;;;4.10;3.00;;;17.90;62.60;;;;;;5048152;28;20571;-76
2021/07/01 09:19:32;;;;;;;4.00;2.97;;;18.00;61.40;;;;;;5052585;28;20538;-76
2021/07/01 09:22:02;;;;;;;2.93;2.73;;;18.20;61.20;;;;;;5053933;28;20448;-76
2021/07/01 09:24:36;;;;;;;5.00;3.40;;;18.30;59.80;;;;;;5039235;28;20571;-76
2021/07/01 09:27:08;;;;;;;3.20;2.87;;;18.10;59.90;;;;;;5037097;28;20999;-77
2021/07/01 09:29:35;;;;;;;3.73;3.40;;;17.80;62.70;;;;;;5040172;28;20529;-76
2021/07/01 09:32:05;;;;;;;4.10;3.40;;;17.30;69.70;;;;;;5037307;28;20454;-76
2021/07/01 09:34:33;;;;;;;4.20;3.80;;;17.10;77.10;;;;;;5035585;28;20476;-76
2021/07/01 09:37:03;;;;;;;3.67;3.37;;;17.10;79.70;;;;;;5036864;28;20482;-76
2021/07/01 09:39:31;;;;;;;4.83;4.27;;;17.30;77.20;;;;;;5037405;28;21022;-77
2021/07/01 09:42:00;;;;;;;7.40;4.00;;;17.40;78.00;;;;;;5037425;28;20465;-76
2021/07/01 09:44:29;;;;;;;5.03;3.80;;;17.60;75.00;;;;;;5037061;28;20464;-76
2021/07/01 09:46:58;;;;;;;4.67;3.50;;;17.70;71.30;;;;;;5036631;28;20509;-76
2021/07/01 09:49:31;;;;;;;3.20;2.80;;;17.60;69.70;;;;;;5037158;28;20985;-77
2021/07/01 09:52:03;;;;;;;8.50;3.33;;;17.70;67.60;;;;;;5039096;28;20923;-76
2021/07/01 09:54:31;;;;;;;4.53;3.40;;;17.90;68.50;;;;;;5037623;28;20462;-76
2021/07/01 09:57:02;;;;;;;4.27;3.00;;;18.30;66.20;;;;;;5041410;28;20551;-75
2021/07/01 09:59:35;;;;;;;4.30;2.97;;;18.60;64.20;;;;;;5047688;28;20468;-75
2021/07/01 10:02:15;;;;;;;3.97;3.30;;;18.20;62.40;;;;;;5042402;28;20457;-76
2021/07/01 10:04:46;;;;;;;3.33;3.03;;;18.40;63.70;;;;;;5044888;28;20471;-76
2021/07/01 10:07:13;;;;;;;3.07;2.80;;;18.10;61.50;;;;;;5035021;28;20571;-76
2021/07/01 10:09:41;;;;;;;3.30;3.00;;;17.80;65.80;;;;;;5016511;28;20586;-75
2021/07/01 10:12:19;;;;;;;4.70;2.93;;;17.80;65.80;;;;;;5035612;28;20485;-75
2021/07/01 10:14:47;;;;;;;3.70;3.40;;;17.70;67.70;;;;;;5035084;28;20551;-75
2021/07/01 10:17:15;;;;;;;5.40;3.00;;;17.80;67.90;;;;;;5035739;28;20576;-75
2021/07/01 10:19:44;;;;;;;3.90;3.50;;;18.10;67.80;;;;;;5034693;28;20488;-76
2021/07/01 10:22:13;;;;;;;4.83;3.40;;;18.20;65.20;;;;;;5034605;28;20478;-75
2021/07/01 10:24:53;;;;;;;3.77;3.47;;;18.20;64.60;;;;;;5051109;28;20441;-74
2021/07/01 10:27:29;;;;;;;5.00;3.43;;;18.60;65.60;;;;;;5039183;28;20964;-74
2021/07/01 10:29:58;;;;;;;5.13;3.43;;;19.00;61.20;;;;;;5034448;28;20530;-75
2021/07/01 10:32:36;;;;;;;8.23;3.57;;;19.00;62.90;;;;;;5035504;28;20544;-75
2021/07/01 10:35:17;;;;;;;5.90;3.00;;;19.20;60.40;;;;;;5033820;28;20441;-75
2021/07/01 10:37:57;;;;;;;3.47;3.17;;;19.20;62.50;;;;;;5034177;28;20505;-76
2021/07/01 10:40:24;;;;;;;4.37;3.87;;;19.30;61.80;;;;;;5034491;28;20977;-76
2021/07/01 10:42:51;;;;;;;3.70;3.40;;;19.30;61.50;;;;;;5034867;28;20481;-75
2021/07/01 10:45:19;;;;;;;6.40;3.40;;;19.40;60.20;;;;;;5034782;28;20526;-75
2021/07/01 10:47:48;;;;;;;3.97;3.43;;;19.40;60.80;;;;;;5033897;28;20438;-76
2021/07/01 10:50:30;;;;;;;4.23;3.83;;;19.70;63.00;;;;;;5033384;28;20524;-76
2021/07/01 10:52:57;;;;;;;4.23;3.30;;;20.00;58.60;;;;;;5033697;28;20465;-75
2021/07/01 10:55:24;;;;;;;3.73;3.43;;;20.00;57.00;;;;;;5033546;28;20500;-77
2021/07/01 10:57:56;;;;;;;3.17;2.97;;;19.90;58.50;;;;;;5034473;28;20461;-75
2021/07/01 11:00:39;;;;;;;4.03;3.67;;;19.70;61.00;;;;;;5035137;28;20441;-75
2021/07/01 11:03:11;;;;;;;3.67;3.37;;;18.90;61.60;;;;;;5034805;28;20500;-75
2021/07/01 11:05:39;;;;;;;3.97;3.60;;;18.60;66.50;;;;;;5035339;28;20512;-74
2021/07/01 11:08:07;;;;;;;4.47;4.07;;;18.50;66.40;;;;;;5040274;28;20547;-75
2021/07/01 11:10:35;;;;;;;4.57;4.20;;;18.50;66.50;;;;;;5034703;28;20491;-76
2021/07/01 11:13:07;;;;;;;5.67;3.27;;;18.80;66.70;;;;;;5034481;28;20453;-75
2021/07/01 11:15:34;;;;;;;3.93;3.60;;;19.10;63.60;;;;;;5043459;28;20460;-75
2021/07/01 11:18:08;;;;;;;4.43;3.20;;;19.10;62.40;;;;;;5049310;28;20483;-74
2021/07/01 11:20:35;;;;;;;4.43;3.47;;;19.20;60.30;;;;;;5047087;28;20444;-75
2021/07/01 11:23:03;;;;;;;3.63;3.33;;;19.60;59.70;;;;;;5054980;28;20445;-75
2021/07/01 11:25:34;;;;;;;5.30;3.47;;;19.90;58.50;;;;;;5014699;28;20457;-76
2021/07/01 11:28:16;;;;;;;4.20;3.60;;;20.00;57.10;;;;;;5013356;28;20495;-76
2021/07/01 11:30:51;;;;;;;3.83;3.17;;;20.30;55.40;;;;;;5012543;28;20494;-78
2021/07/01 11:33:20;;;;;;;4.30;2.80;;;20.60;55.30;;;;;;5013054;28;20466;-76
2021/07/01 11:35:48;;;;;;;2.90;2.70;;;20.90;51.20;;;;;;5032645;28;20578;-77
2021/07/01 11:38:27;;;;;;;3.57;2.70;;;20.80;50.60;;;;;;5033178;28;20456;-76
2021/07/01 11:40:56;;;;;;;2.90;2.60;;;20.70;50.20;;;;;;5012684;28;20873;-74
2021/07/01 11:43:23;;;;;;;3.83;3.40;;;20.80;51.70;;;;;;5024904;28;20457;-75
2021/07/01 11:45:51;;;;;;;5.90;2.80;;;20.80;51.70;;;;;;5030413;28;21020;-76
2021/07/01 11:48:20;;;;;;;3.97;3.17;;;21.20;50.00;;;;;;5027793;28;20458;-75
2021/07/01 11:50:49;;;;;;;4.50;2.40;;;21.50;46.10;;;;;;5032419;28;20492;-74
2021/07/01 11:53:17;;;;;;;2.67;2.47;;;21.40;45.80;;;;;;5013016;28;20482;-75
2021/07/01 11:55:47;;;;;;;3.33;3.03;;;21.40;45.50;;;;;;5015526;28;20487;-76
2021/07/01 11:58:15;;;;;;;6.43;2.67;;;20.90;46.40;;;;;;5033336;28;20454;-76
2021/07/01 12:00:43;;;;;;;2.83;2.53;;;20.20;48.40;;;;;;5037007;28;20536;-75
2021/07/01 12:03:11;;;;;;;2.60;2.40;;;20.10;49.00;;;;;;5032368;28;20542;-75
2021/07/01 12:05:43;;;;;;;3.80;3.10;;;19.80;49.50;;;;;;5032791;28;20992;-74
2021/07/01 12:08:11;;;;;;;3.47;3.00;;;19.30;51.60;;;;;;5033423;28;20802;-75
2021/07/01 12:10:38;;;;;;;4.20;3.33;;;19.00;52.90;;;;;;5022945;28;21092;-75
2021/07/01 12:13:45;;;;;;;4.33;2.90;;;18.70;54.10;;;;;;5021087;28;20548;-75
2021/07/01 12:16:14;;;;;;;3.13;2.83;;;18.40;55.80;;;;;;5024852;28;20533;-74
2021/07/01 12:18:56;;;;;;;3.00;2.80;;;18.00;56.70;;;;;;5026402;28;20527;-75
2021/07/01 12:21:26;;;;;;;4.20;3.00;;;17.80;59.00;;;;;;5034135;28;20989;-76
2021/07/01 12:23:55;;;;;;;5.80;3.07;;;17.70;60.00;;;;;;5034925;28;20585;-74
2021/07/01 12:26:37;;;;;;;5.03;2.90;;;17.60;61.40;;;;;;5047779;28;20500;-74
2021/07/01 12:29:08;;;;;;;2.87;2.67;;;17.50;61.60;;;;;;5019418;28;20492;-76
2021/07/01 12:31:36;;;;;;;3.00;2.50;;;17.40;58.40;;;;;;5034783;28;20450;-74
2021/07/01 12:34:04;;;;;;;2.70;2.50;;;17.30;59.10;;;;;;5049228;28;20935;-74
2021/07/01 12:36:32;;;;;;;3.73;2.90;;;17.30;59.50;;;;;;5034033;28;20465;-75
2021/07/01 12:39:20;;;;;;;5.17;3.00;;;17.40;58.80;;;;;;5036545;28;20496;-74
2021/07/01 12:41:50;;;;;;;3.20;2.60;;;17.40;58.50;;;;;;5037149;28;21000;-74
2021/07/01 12:44:20;;;;;;;8.13;2.83;;;17.30;57.00;;;;;;5037414;28;20466;-75
2021/07/01 12:46:59;;;;;;;6.30;2.87;;;17.30;58.30;;;;;;5036807;28;20498;-74
2021/07/01 12:50:04;;;;;;;2.77;2.57;;;17.40;57.00;;;;;;5037512;28;20515;-74
2021/07/01 12:52:46;;;;;;;3.07;2.83;;;17.50;56.30;;;;;;5038090;28;20464;-75
2021/07/01 12:55:26;;;;;;;2.87;2.43;;;17.90;56.60;;;;;;5038429;28;20460;-75
2021/07/01 12:57:53;;;;;;;6.17;2.90;;;18.20;54.70;;;;;;5040058;28;20452;-74